Blue Oak Ranch Reserve, California Weather observations

Data are for 10 minute period ending at time listed.
 Day   Time   Solar   Ave.   Ave.  Ave.  Vector  Max.   Baro.   Total    
  of    of     Rad.   Air    Rel.  Wind   Wind   Wind  Press.  Precip.   
Year   Day            Temp.  Hum.  Speed  Dir.   Gust                    
2016   (PST)  Kw/m2    F      %     mph   deg.    mph    mb.     in.     
-------------------------------------------------------------------------
 149    7:10   0.36   71.9    38    1.5   271     3.7   943.5    0.00 
 149    7:20   0.40   72.3    35    1.4   143     2.9   943.7    0.00 
 149    7:30   0.44   72.5    36    1.2   153     3.9   943.8    0.00 
 149    7:40   0.48   72.9    36    1.1   239     2.9   944.0    0.00 
 149    7:50   0.48   74.3    32    1.7   119     4.8   944.0    0.00 
 149    8:00   0.51   73.3    36    2.9   243     5.5   944.2    0.00 
 149    8:10   0.59   73.8    38    3.2   243     5.6   944.3    0.00 
 149    8:20   0.61   73.8    39    4.0   226     6.1   944.4    0.00 
 149    8:30   0.67   73.5    41    3.7   261     5.6   944.4    0.00 
 149    8:40   0.69   73.7    35    4.8   290     7.2   944.3    0.00 
 149    8:50   0.74   74.3    39    4.8   253     7.6   944.4    0.00 
 149    9:00   0.78   75.1    36    6.1   276     9.9   944.4    0.00 
 149    9:10   0.79   74.4    33    7.7   285    10.4   944.4    0.00 
 149    9:20   0.80   74.3    34    7.0   288    11.2   944.4    0.00 
 149    9:30   0.76   74.9    35    5.7   275     8.6   944.4    0.00 
 149    9:40   0.86   75.7    36    6.4   283     8.8   944.4    0.00 
 149    9:50   0.81   75.3    40    6.6   261    10.6   944.5    0.00 
 149   10:00   0.84   74.3    45    6.2   252    10.5   944.5    0.00 
 149   10:10   0.88   74.2    45    5.3   245    10.0   944.6    0.00 
 149   10:20   0.93   74.7    45    4.5   250     8.3   944.7    0.00 
 149   10:30   0.85   75.4    43    5.1   248     9.0   944.8    0.00 
 149   10:40   0.62   74.7    44    6.0   248     9.4   944.8    0.00 
 149   10:50   0.81   75.0    43    5.2   236    11.0   944.8    0.00 
 149   11:00   0.92   76.0    42    5.7   241    10.4   944.8    0.00 
 149   11:10   0.94   75.9    42    6.9   235     9.9   944.8    0.00 
 149   11:20   0.84   76.6    42    5.3   245    10.4   944.8    0.00 
 149   11:30   0.98   76.9    42    5.8   247    10.3   944.8    0.00 
 149   11:40   0.88   77.2    41    5.6   240    10.1   944.7    0.00 
 149   11:50   0.83   77.5    40    5.3   250    10.5   944.8    0.00 
 149   12:00   0.92   77.8    40    6.9   261    10.7   944.7    0.00 
 149   12:10   0.99   77.8    39    6.3   253    12.4   944.7    0.00 
 149   12:20   0.99   77.4    39    6.6   240    11.6   944.7    0.00 
 149   12:30   0.98   78.0    38    5.1   228    10.9   944.7    0.00 
 149   12:40   1.00   78.5    35    6.0   249    11.0   944.7    0.00 
 149   12:50   0.96   79.2    34    5.4   250    11.6   944.6    0.00 
 149   13:00   0.96   79.4    34    6.1   229    10.0   944.5    0.00 
 149   13:10   0.89   79.8    31    5.8   243     9.6   944.4    0.00 
 149   13:20   0.77   79.7    32    3.7   227     8.6   944.4    0.00 
 149   13:30   0.89   80.3    31    5.4   249    11.7   944.3    0.00 
 149   13:40   0.93   81.2    27    6.4   263    12.3   944.2    0.00 
 149   13:50   0.92   82.0    27    7.9   286    12.3   944.2    0.00 
 149   14:00   0.92   81.4    27    8.7   292    16.1   944.0    0.00 
 149   14:10   0.91   81.4    28    7.7   296    15.6   944.0    0.00 
 149   14:20   0.73   81.2    26    7.7   280    15.4   943.9    0.00 
 149   14:30   0.73   81.2    27    7.8   288    13.5   943.9    0.00 
 149   14:40   0.76   81.5    28    8.2   288    14.6   943.9    0.00 
 149   14:50   0.74   81.1    28   10.5   294    16.2   943.8    0.00 
 149   15:00   0.70   80.2    28    9.7   293    14.3   943.8    0.00 
 149   15:10   0.49   79.7    28    8.3   293    13.2   943.8    0.00 
 149   15:20   0.51   79.3    29    8.3   286    13.5   943.9    0.00 
 149   15:30   0.50   79.5    29    8.6   290    12.9   944.0    0.00 
 149   15:40   0.55   79.4    30    7.7   287    14.5   944.0    0.00 
 149   15:50   0.64   79.3    31    8.7   299    14.4   944.1    0.00 
 149   16:00   0.66   80.6    31    9.5   284    14.6   944.1    0.00 
 149   16:10   0.63   80.2    31    9.1   289    14.3   944.1    0.00 
 149   16:20   0.59   80.0    30    8.8   284    13.4   944.1    0.00 
 149   16:30   0.53   79.7    30    9.2   286    12.6   944.1    0.00 
 149   16:40   0.48   80.0    29    7.0   279    13.2   944.2    0.00 
 149   16:50   0.25   79.0    30    7.3   279    11.0   944.2    0.00 
 149   17:00   0.16   76.8    32    7.1   279    12.1   944.3    0.00 
 149   17:10   0.15   76.0    34    6.3   277     9.9   944.3    0.00 
 149   17:20   0.11   75.5    35    4.8   289     8.6   944.3    0.00 
 149   17:30   0.08   74.3    35    5.6   315     8.6   944.3    0.00 
 149   17:40   0.07   73.6    35    4.8   309     8.1   944.4    0.00 
 149   17:50   0.07   72.8    37    4.5   314     7.6   944.5    0.00 
 149   18:00   0.05   71.9    39    3.5   331     7.5   944.6    0.00 
 149   18:10   0.05   71.5    38    3.6   319     6.9   944.7    0.00 
 149   18:20   0.06   70.1    42    1.6   352     4.2   944.7    0.00 
 149   18:30   0.08   69.0    44    1.3   346     2.9   944.7    0.00 
 149   18:40   0.07   69.1    46    0.5    31     1.8   944.7    0.00 
 149   18:50   0.06   67.4    47    1.6   338     3.4   944.6    0.00 
 149   19:00   0.04   66.5    49    0.6   348     1.8   944.7    0.00 
 149   19:10   0.02   64.9    53    0.2   116     1.1   944.7    0.00 
 149   19:20   0.01   63.3    56    0.4    56     2.1   944.6    0.00 
 149   19:30   0.01   61.6    57    0.7   348     1.4   944.6    0.00 
 149   19:40   0.00   60.6    59    1.0    34     2.6   944.7    0.00 
 149   19:50   0.00   59.5    61    0.7    21     2.4   944.7    0.00 
 149   20:00   0.00   58.9    62    0.9   273     2.0   944.7    0.00 
 149   20:10   0.00   58.6    63    1.2   291     2.2   944.8    0.00 
 149   20:20   0.00   57.8    62    1.7    59     3.1   944.9    0.00 
 149   20:30   0.00   56.8    65    1.1    53     2.6   945.0    0.00 
 149   20:40   0.00   56.6    66    1.0   304     2.3   945.2    0.00 
 149   20:50   0.00   56.2    67    0.9   306     1.9   945.3    0.00 
 149   21:00   0.00   55.9    66    0.3   299     1.4   945.4    0.00 
 149   21:10   0.00   55.4    68    0.7   279     2.0   945.5    0.00 
 149   21:20   0.00   55.0    68    0.0     0     0.0   945.5    0.00 
 149   21:30   0.00   54.8    68    0.7    41     1.7   945.6    0.00 
 149   21:40   0.00   54.3    69    0.2   282     1.2   945.6    0.00 
 149   21:50   0.00   53.9    70    0.1   240     1.1   945.6    0.00 
 149   22:00   0.00   53.8    70    0.3   284     1.1   945.7    0.00 
 149   22:10   0.00   53.5    71    0.5   314     1.8   945.8    0.00 
 149   22:20   0.00   53.0    72    0.5    52     1.8   945.8    0.00 
 149   22:30   0.00   53.0    70    0.6    75     2.3   945.8    0.00 
 149   22:40   0.00   52.7    72    0.9   286     2.0   945.8    0.00 
 149   22:50   0.00   52.6    71    0.1   278     0.7   945.8    0.00 
 149   23:00   0.00   52.7    70    0.6   258     1.0   945.8    0.00 
 149   23:10   0.00   52.8    71    0.5    33     1.5   945.9    0.00 
 149   23:20   0.00   52.8    72    0.3    10     1.3   945.9    0.00 
 149   23:30   0.00   52.7    70    0.7   286     1.9   945.9    0.00 
 149   23:40   0.00   52.8    72    0.1   271     1.2   945.8    0.00 
 149   23:50   0.00   52.5    72    1.0   326     2.0   945.8    0.00 
 150    0:00   0.00   52.4    74    0.1    36     1.5   945.8    0.00 
 150    0:10   0.00   52.1    74    0.4    72     1.6   945.8    0.00 
 150    0:20   0.00   51.4    76    0.5    62     1.4   945.8    0.00 
 150    0:30   0.00   50.9    77    0.1    48     1.1   945.8    0.00 
 150    0:40   0.00   50.6    78    0.4    53     1.6   945.8    0.00 
 150    0:50   0.00   50.5    78    1.1   293     2.2   945.8    0.00 
 150    1:00   0.00   50.2    79    0.1   125     0.9   945.8    0.00 
 150    1:10   0.00   50.3    79    0.3   351     1.4   945.7    0.00 
 150    1:20   0.00   50.0    79    1.1   279     2.0   945.7    0.00 
 150    1:30   0.00   50.1    79    0.6   315     1.3   945.7    0.00 
 150    1:40   0.00   50.4    77    1.5    18     2.3   945.7    0.00 
 150    1:50   0.00   50.3    78    0.6   311     1.8   945.7    0.00 
 150    2:00   0.00   50.8    76    0.8   282     1.4   945.7    0.00 
 150    2:10   0.00   50.6    77    0.8   306     1.8   945.7    0.00 
 150    2:20   0.00   50.4    77    0.6    71     1.5   945.7    0.00 
 150    2:30   0.00   50.0    78    0.8    32     1.8   945.6    0.00 
 150    2:40   0.00   49.3    80    0.8   296     1.4   945.5    0.00 
 150    2:50   0.00   49.8    78    0.3    29     1.8   945.6    0.00 
 150    3:00   0.00   50.1    78    0.2    49     1.2   945.6    0.00 
 150    3:10   0.00   50.3    77    0.2   336     2.3   945.7    0.00 
 150    3:20   0.00   49.7    77    1.9    60     3.3   945.7    0.00 
 150    3:30   0.00   49.1    79    1.3   303     2.1   945.7    0.00 
 150    3:40   0.00   48.4    81    1.3   297     2.0   945.7    0.00 
 150    3:50   0.00   48.7    79    0.4   110     1.1   945.7    0.00 
 150    4:00   0.00   49.2    77    0.4   274     2.0   945.8    0.00 
 150    4:10   0.00   49.2    77    0.0   354     0.4   945.8    0.00 
 150    4:20   0.00   49.3    77    0.5    72     2.0   946.0    0.00 
 150    4:30   0.00   49.0    78    0.1    56     0.9   946.0    0.00 
 150    4:40   0.00   48.5    78    1.4   302     2.9   946.0    0.00 
 150    4:50   0.01   48.6    79    0.1   293     1.1   946.0    0.00 
 150    5:00   0.01   49.4    76    0.0    27     0.9   946.1    0.00 
 150    5:10   0.01   49.1    77    0.2   320     1.4   946.2    0.00 
 150    5:20   0.03   49.9    76    0.2    84     0.9   946.2    0.00 
 150    5:30   0.03   49.7    77    0.1   313     1.0   946.3    0.00 
 150    5:40   0.03   49.8    78    0.2     5     1.2   946.4    0.00 
 150    5:50   0.04   50.2    79    0.3   304     1.1   946.5    0.00 
 150    6:00   0.11   52.1    76    0.0   300     0.6   946.6    0.00 
 150    6:10   0.16   55.0    74    0.0    32     0.7   946.6    0.00 
 150    6:20   0.19   58.4    67    0.4    64     1.9   946.7    0.00 
 150    6:30   0.23   61.5    60    1.4    70     2.0   946.7    0.00 
 150    6:40   0.26   66.0    50    0.3   188     1.1   946.7    0.00 
 150    6:50   0.30   69.0    47    0.1    67     0.7   946.7    0.00 
 150    7:00   0.33   71.2    44    0.5   271     1.9   946.7    0.00 

Return to Blue Oak Ranch Reserve graphs page.


Western Regional Climate Center,wrcc@dri.edu